Racine, Wisconsin
Current Conditions -  °F | °C
As of 5:53 AM on Sunday 21 Dec 2014 (Local Time) from KRAC Reporting Station
Overcast Overcast  
Wind Chill: 25°   Ceiling: 3400
Heat Index: 33°   Visibility: 8mi
Dew Point: 26°   Wind: 10mph
Humidity: 75%   Direction: 170°S
Pressure: 30.2"   Gusts: NA
Location:  42.73°N, 87.79°W
Report Text: KRAC 211153Z AUTO 17009KT 8SM OVC034 01/M03 A3020 RMK AO2 SLP235 T00061033 10006 20000 56011
Loading
Personal Weather Stations






























Interactive Weather Map New forecast layout! Learn more

10-Day Weather Forecast

Advertisements
Track Severe Weather on mobile